Terminal Aerodrome Forecast
Issued by NWS

Home | Current Version | Previous Version | Text Only | Print | Product List | Glossary On
Versions: 1 2 3 4 5 6 7 8 9 10 11 12 13
525
FTUS45 KPSR 111140
TAFIPL
TAF
KIPL 111140Z 1112/1212 28005KT P6SM SKC
     FM112100 34004KT P6SM SKC
     FM120200 26005KT P6SM SKC=

USA.gov is the U.S. government's official web portal to all federal, state and local government web resources and services.